Time;durP1;ratioP1;P1;durP2;ratioP2;P2;SDS_P1;SDS_P2;PMS_P1;PMS_P2;Temp;Humidity;BMP_temperature;BMP_pressure;BME280_temperature;BME280_humidity;BME280_pressure;Samples;Min_cycle;Max_cycle;Signal;HPM_P1;HPM_P2
2021/06/03 00:02:01;;;;;;;6.10;5.17;;;;;;;19.56;50.51;96508.84;4979840;28;20444;-91
2021/06/03 00:04:27;;;;;;;6.47;4.33;;;;;;;19.66;51.15;96511.44;4979673;28;20470;-92
2021/06/03 00:20:34;;;;;;;4.70;4.20;;;;;;;19.29;53.13;96514.06;4928147;29;20816;-93
2021/06/03 00:23:01;;;;;;;4.60;4.10;;;;;;;19.23;53.33;96517.16;4971394;28;20496;-91
2021/06/03 00:25:27;;;;;;;4.93;3.80;;;;;;;19.23;52.63;96530.84;4980504;28;20510;-91
2021/06/03 00:27:54;;;;;;;4.30;3.90;;;;;;;19.20;53.14;96528.59;4980885;28;20606;-92
2021/06/03 00:30:21;;;;;;;4.13;3.70;;;;;;;19.16;53.91;96529.06;4980041;28;20513;-92
2021/06/03 00:32:48;;;;;;;5.00;4.33;;;;;;;19.12;51.40;96525.38;4980478;28;20540;-92
2021/06/03 00:35:15;;;;;;;8.00;5.07;;;;;;;19.16;53.66;96528.34;4980957;28;20946;-91
2021/06/03 00:37:43;;;;;;;9.53;6.30;;;;;;;19.13;53.87;96529.53;4986405;28;20486;-91
2021/06/03 00:40:12;;;;;;;7.10;6.40;;;;;;;19.06;53.88;96527.75;4980798;28;20461;-91
2021/06/03 00:42:39;;;;;;;8.40;5.20;;;;;;;18.97;54.27;96525.81;4986862;28;20484;-91
2021/06/03 00:45:09;;;;;;;4.50;4.10;;;;;;;19.01;54.34;96540.47;4999652;28;20445;-92
2021/06/03 00:47:35;;;;;;;7.20;4.90;;;;;;;18.90;54.68;96527.47;4999837;28;20450;-92
2021/06/03 00:50:01;;;;;;;7.37;4.80;;;;;;;18.84;54.33;96532.59;4999277;28;20465;-93
2021/06/03 00:52:27;;;;;;;7.03;4.73;;;;;;;18.71;55.39;96535.88;4999659;28;20550;-91
2021/06/03 00:54:55;;;;;;;8.47;4.73;;;;;;;18.65;56.11;96538.97;4999428;28;20473;-92
2021/06/03 00:57:21;;;;;;;8.97;4.63;;;;;;;18.50;56.40;96533.22;4999709;28;20422;-93
2021/06/03 00:59:47;;;;;;;6.10;4.43;;;;;;;18.44;56.47;96539.00;4999690;28;20418;-92
2021/06/03 01:02:13;;;;;;;7.77;5.30;;;;;;;18.33;57.21;96526.00;4998706;28;20521;-92
2021/06/03 01:04:39;;;;;;;7.93;4.77;;;;;;;18.28;57.37;96535.25;4999480;28;20470;-93
2021/06/03 01:07:06;;;;;;;4.60;3.90;;;;;;;18.13;57.99;96536.38;4993282;28;20449;-91
2021/06/03 01:09:40;;;;;;;4.70;4.03;;;;;;;18.05;58.39;96537.88;4981383;28;20875;-91
2021/06/03 01:12:13;;;;;;;5.10;4.60;;;;;;;17.95;58.79;96529.75;4981218;28;20564;-93
2021/06/03 01:14:45;;;;;;;5.73;5.10;;;;;;;17.86;59.29;96538.72;4981929;28;20545;-93
2021/06/03 01:17:11;;;;;;;5.70;5.10;;;;;;;17.83;59.29;96537.16;4982495;28;20477;-93
2021/06/03 01:19:40;;;;;;;5.17;4.00;;;;;;;17.80;59.68;96534.88;4985727;28;20445;-93
2021/06/03 01:22:11;;;;;;;5.43;4.50;;;;;;;17.70;60.11;96534.94;4991646;28;20446;-92
2021/06/03 01:24:40;;;;;;;8.90;6.20;;;;;;;17.67;60.03;96536.09;4999182;28;20458;-91
2021/06/03 01:27:09;;;;;;;9.10;4.70;;;;;;;17.70;60.37;96532.19;4999091;28;20465;-92
2021/06/03 01:33:07;;;;;;;5.67;4.77;;;;;;;17.54;60.54;96531.84;4961879;28;20513;-91
2021/06/03 01:35:37;;;;;;;6.80;5.00;;;;;;;17.47;61.23;96532.75;4979740;28;20469;-92
2021/06/03 01:38:05;;;;;;;5.50;4.87;;;;;;;17.42;62.03;96544.69;4980326;28;21009;-92
2021/06/03 01:40:35;;;;;;;7.63;4.43;;;;;;;17.41;62.37;96543.28;4980705;28;20441;-92
2021/06/03 01:43:04;;;;;;;5.77;4.90;;;;;;;17.34;62.47;96544.16;4980102;28;20430;-92
2021/06/03 01:45:30;;;;;;;4.57;4.07;;;;;;;17.35;62.91;96547.59;4981302;28;20560;-90
2021/06/03 01:47:57;;;;;;;5.63;4.10;;;;;;;17.31;63.17;96539.16;4981845;28;20476;-91
2021/06/03 01:50:31;;;;;;;6.63;5.47;;;;;;;17.27;63.46;96549.78;4980694;28;20468;-90
2021/06/03 02:45:17;;;;;;;6.30;4.80;;;;;;;17.46;68.32;96557.88;4989087;28;20478;-93
2021/06/03 02:47:44;;;;;;;6.87;5.07;;;;;;;17.50;68.22;96563.63;4984740;28;20971;-93
2021/06/03 02:50:11;;;;;;;6.80;6.10;;;;;;;17.50;68.86;96566.34;4983334;28;20454;-91
2021/06/03 02:52:38;;;;;;;8.07;5.73;;;;;;;17.50;68.53;96567.06;4982597;28;20960;-92
2021/06/03 02:58:06;;;;;;;7.17;4.80;;;;;;;17.57;68.99;96568.22;4985387;28;20524;-91
2021/06/03 03:01:15;;;;;;;5.60;5.10;;;;;;;17.61;68.63;96563.72;4984580;28;20517;-90
2021/06/03 03:03:43;;;;;;;6.80;4.67;;;;;;;17.63;68.65;96560.41;4984501;28;20461;-93
2021/06/03 03:06:09;;;;;;;7.17;5.30;;;;;;;17.65;68.88;96557.81;4992761;28;20532;-93
2021/06/03 03:08:35;;;;;;;7.30;5.67;;;;;;;17.67;68.67;96571.59;4987411;28;20462;-93
2021/06/03 03:11:02;;;;;;;6.40;4.60;;;;;;;17.68;68.89;96573.03;4984639;28;20824;-93
2021/06/03 03:13:29;;;;;;;9.20;5.37;;;;;;;17.69;68.97;96571.00;4982915;28;20533;-92
2021/06/03 03:15:56;;;;;;;10.50;6.00;;;;;;;17.67;68.86;96580.50;4982898;28;20541;-91
2021/06/03 03:18:39;;;;;;;7.80;5.67;;;;;;;17.67;68.55;96569.56;4983767;28;20537;-91
2021/06/03 03:21:43;;;;;;;5.80;5.20;;;;;;;17.58;69.25;96580.53;4982829;28;20426;-91
2021/06/03 03:24:10;;;;;;;5.60;4.80;;;;;;;17.50;69.64;96580.69;4981989;28;20448;-92
2021/06/03 03:26:36;;;;;;;5.50;5.00;;;;;;;17.39;70.32;96577.88;4982274;28;20522;-92
2021/06/03 03:29:03;;;;;;;5.47;4.97;;;;;;;17.37;70.02;96580.47;4996238;28;20434;-90
2021/06/03 03:31:29;;;;;;;10.50;5.30;;;;;;;17.41;69.98;96586.19;5001276;28;20513;-91
2021/06/03 03:34:02;;;;;;;7.17;5.90;;;;;;;17.47;69.82;96586.59;5001140;28;20482;-89
2021/06/03 03:36:28;;;;;;;6.40;5.80;;;;;;;17.52;69.61;96591.03;4990076;28;20423;-90
2021/06/03 03:38:54;;;;;;;7.60;5.57;;;;;;;17.52;69.75;96594.47;4982373;28;20454;-91
2021/06/03 03:41:22;;;;;;;6.80;5.73;;;;;;;17.62;69.44;96599.91;4982382;28;20521;-91
2021/06/03 03:43:48;;;;;;;6.30;5.13;;;;;;;17.72;69.28;96592.41;4981580;28;20565;-91
2021/06/03 03:46:14;;;;;;;8.63;4.70;;;;;;;17.89;68.99;96591.44;4983077;28;20541;-91
2021/06/03 03:48:40;;;;;;;5.10;4.70;;;;;;;18.07;68.52;96581.72;4982938;28;20446;-91
2021/06/03 03:51:06;;;;;;;5.37;4.70;;;;;;;18.28;67.96;96595.34;4982379;28;20460;-90
2021/06/03 03:53:32;;;;;;;6.97;4.90;;;;;;;18.48;67.24;96593.19;4983345;28;20482;-91
2021/06/03 03:55:58;;;;;;;5.10;4.53;;;;;;;18.65;66.95;96590.19;4983534;28;20510;-92
2021/06/03 03:58:26;;;;;;;6.27;5.67;;;;;;;18.82;66.64;96600.84;4984701;28;20539;-92
2021/06/03 04:00:52;;;;;;;7.77;4.93;;;;;;;18.87;66.52;96604.53;4985999;28;20506;-92
2021/06/03 04:03:18;;;;;;;8.73;5.27;;;;;;;18.86;66.28;96603.09;4985667;28;20585;-92
2021/06/03 04:05:44;;;;;;;5.30;4.60;;;;;;;18.81;66.34;96604.88;4984721;28;20480;-90
2021/06/03 04:08:11;;;;;;;5.57;5.00;;;;;;;18.77;67.03;96604.59;4982648;28;20525;-90
2021/06/03 04:10:37;;;;;;;6.00;5.40;;;;;;;18.64;67.13;96603.13;4983424;28;20445;-92
2021/06/03 04:13:03;;;;;;;6.27;5.50;;;;;;;18.57;67.82;96606.81;4981955;28;20612;-91
2021/06/03 04:15:31;;;;;;;4.87;4.30;;;;;;;18.55;68.20;96603.22;4981712;28;20477;-91
2021/06/03 04:17:57;;;;;;;5.83;5.23;;;;;;;18.55;68.48;96605.94;4982662;28;20526;-91
2021/06/03 04:20:23;;;;;;;5.17;4.77;;;;;;;18.53;68.45;96603.81;4982386;28;20442;-92
2021/06/03 04:22:50;;;;;;;5.40;4.90;;;;;;;18.50;68.95;96617.94;4982127;28;20449;-93
2021/06/03 04:25:17;;;;;;;4.90;4.40;;;;;;;18.44;69.21;96612.06;4982736;28;20473;-92
2021/06/03 04:27:43;;;;;;;7.60;5.20;;;;;;;18.42;69.53;96612.63;4981889;28;20474;-92
2021/06/03 04:30:13;;;;;;;6.87;5.10;;;;;;;18.51;69.41;96617.34;4982946;28;20421;-92
2021/06/03 04:32:41;;;;;;;8.50;5.63;;;;;;;18.51;69.40;96613.91;4983058;28;20494;-92
2021/06/03 04:35:08;;;;;;;5.87;4.77;;;;;;;18.50;69.54;96618.66;4983482;28;20505;-92
2021/06/03 04:37:34;;;;;;;6.97;4.80;;;;;;;18.51;69.50;96619.38;4982279;28;20502;-92
2021/06/03 04:40:01;;;;;;;7.87;5.30;;;;;;;18.48;69.60;96626.00;4983395;28;20481;-92
2021/06/03 04:42:27;;;;;;;7.63;5.60;;;;;;;18.44;69.64;96626.44;4981990;28;20970;-91
2021/06/03 04:44:53;;;;;;;6.67;4.97;;;;;;;18.48;69.90;96629.41;4982586;28;20512;-91
2021/06/03 04:47:19;;;;;;;6.40;5.27;;;;;;;18.50;69.80;96634.34;4982645;28;20485;-92
2021/06/03 04:49:47;;;;;;;7.77;5.10;;;;;;;18.49;69.48;96625.41;4981976;28;20509;-91
2021/06/03 04:55:20;;;;;;;6.00;5.10;;;;;;;18.43;70.21;96635.22;4955714;28;20441;-92
2021/06/03 04:57:47;;;;;;;13.00;5.93;;;;;;;18.51;70.07;96627.59;4999719;28;20437;-91
2021/06/03 05:00:16;;;;;;;5.20;4.70;;;;;;;18.48;70.21;96634.19;4993244;28;20490;-92
2021/06/03 05:02:43;;;;;;;9.43;5.53;;;;;;;18.49;70.27;96636.34;4981260;28;20444;-91
2021/06/03 05:05:13;;;;;;;5.87;5.03;;;;;;;18.48;70.50;96636.94;4981926;28;20549;-91
2021/06/03 05:07:39;;;;;;;5.90;5.40;;;;;;;18.47;70.46;96644.41;4982324;28;20454;-92
2021/06/03 05:10:07;;;;;;;6.10;5.50;;;;;;;18.46;70.36;96650.44;4978513;28;20581;-91
2021/06/03 05:12:34;;;;;;;6.93;6.13;;;;;;;18.44;70.41;96656.50;4979312;28;20994;-91
2021/06/03 05:15:00;;;;;;;5.90;5.30;;;;;;;18.41;70.49;96656.97;4979528;28;21038;-90
2021/06/03 05:17:27;;;;;;;7.93;5.60;;;;;;;18.49;70.41;96652.75;4985488;28;20470;-92
2021/06/03 05:19:53;;;;;;;6.17;5.50;;;;;;;18.54;69.87;96659.19;4979834;28;20525;-91
2021/06/03 05:22:20;;;;;;;7.10;6.07;;;;;;;18.42;69.43;96656.38;4979185;28;20473;-91
2021/06/03 05:24:54;;;;;;;8.50;6.10;;;;;;;18.41;69.34;96667.91;4979853;28;20470;-90
2021/06/03 05:27:21;;;;;;;8.40;6.43;;;;;;;18.51;69.18;96657.66;4979832;28;20469;-91
2021/06/03 05:29:47;;;;;;;8.77;6.47;;;;;;;18.56;69.13;96657.31;4980081;28;20808;-92
2021/06/03 05:32:13;;;;;;;7.27;5.23;;;;;;;18.56;69.29;96665.50;4978432;28;20589;-91
2021/06/03 05:34:39;;;;;;;6.60;6.00;;;;;;;18.68;69.35;96669.00;4983648;28;20454;-90
2021/06/03 05:37:06;;;;;;;6.53;5.60;;;;;;;18.85;69.07;96667.31;4983445;28;20423;-91
2021/06/03 05:39:33;;;;;;;8.53;5.87;;;;;;;19.08;68.88;96679.03;4980076;28;20819;-91
2021/06/03 05:42:00;;;;;;;5.73;5.13;;;;;;;19.25;68.77;96681.47;4982083;28;20532;-89
2021/06/03 05:44:27;;;;;;;7.13;5.00;;;;;;;19.55;67.94;96682.63;4981568;28;20577;-91
2021/06/03 05:46:53;;;;;;;5.83;4.30;;;;;;;19.91;67.33;96681.34;4979604;28;20465;-90
2021/06/03 05:49:19;;;;;;;8.07;5.40;;;;;;;20.64;65.91;96694.50;4982614;28;20440;-91
2021/06/03 05:51:45;;;;;;;5.77;4.90;;;;;;;21.59;63.10;96696.25;4984098;28;20516;-91
2021/06/03 05:54:12;;;;;;;8.17;4.47;;;;;;;22.56;60.43;96712.19;4983828;28;21070;-93
2021/06/03 05:56:39;;;;;;;5.17;4.47;;;;;;;23.49;57.43;96711.19;4983555;28;20454;-94
2021/06/03 05:59:06;;;;;;;5.27;4.87;;;;;;;24.14;55.29;96709.25;4983494;28;20458;-93
2021/06/03 06:01:32;;;;;;;5.37;4.07;;;;;;;24.34;54.28;96710.13;4983420;28;20438;-92
2021/06/03 06:04:14;;;;;;;4.97;4.47;;;;;;;24.03;54.81;96710.84;4983421;28;20485;-91
2021/06/03 06:06:40;;;;;;;4.90;4.40;;;;;;;23.63;55.77;96715.28;4984114;28;20811;-90
2021/06/03 06:09:10;;;;;;;5.10;4.63;;;;;;;23.36;57.07;96716.09;4982984;28;20454;-90
2021/06/03 06:11:38;;;;;;;5.53;4.33;;;;;;;22.90;58.47;96711.88;4985743;28;20986;-92
2021/06/03 06:14:07;;;;;;;6.00;5.10;;;;;;;22.74;60.20;96718.66;4983873;28;20575;-91
2021/06/03 06:16:34;;;;;;;10.53;4.70;;;;;;;22.68;61.01;96719.03;4985867;28;20496;-93
2021/06/03 06:21:51;;;;;;;7.07;5.07;;;;;;;22.13;63.55;96728.63;4983983;28;20914;-93
2021/06/03 06:24:18;;;;;;;6.13;5.30;;;;;;;21.99;64.40;96728.59;4984693;28;20547;-93
2021/06/03 06:26:44;;;;;;;7.37;4.83;;;;;;;21.75;65.04;96727.31;4983239;28;20473;-91
2021/06/03 06:29:11;;;;;;;6.80;5.40;;;;;;;21.65;64.94;96724.75;4985693;28;20507;-92
2021/06/03 06:31:37;;;;;;;9.13;5.10;;;;;;;21.52;65.55;96730.22;4982838;28;20525;-92
2021/06/03 06:34:03;;;;;;;10.37;5.83;;;;;;;21.46;65.19;96727.84;4985174;28;20484;-93
2021/06/03 06:36:29;;;;;;;5.27;4.77;;;;;;;21.45;64.70;96731.94;4984891;28;20489;-92
2021/06/03 06:38:56;;;;;;;9.80;5.70;;;;;;;21.39;65.28;96734.34;4985321;28;20529;-93
2021/06/03 06:41:22;;;;;;;6.40;5.50;;;;;;;21.30;65.72;96738.66;4984933;28;20492;-92
2021/06/03 06:43:48;;;;;;;6.80;5.07;;;;;;;21.27;65.75;96739.16;4985547;28;20564;-93
2021/06/03 06:46:15;;;;;;;6.67;4.47;;;;;;;21.29;65.56;96740.00;4983430;28;20560;-93
2021/06/03 06:48:41;;;;;;;6.20;4.87;;;;;;;21.04;66.24;96739.94;4984261;28;20453;-93
2021/06/03 06:51:08;;;;;;;5.40;4.30;;;;;;;21.02;66.61;96731.59;4985420;28;20537;-92
2021/06/03 06:53:34;;;;;;;6.27;5.20;;;;;;;21.03;66.60;96737.78;4985718;28;20489;-93
2021/06/03 06:56:00;;;;;;;7.00;6.30;;;;;;;20.92;66.99;96731.06;4983587;28;20496;-92
2021/06/03 06:58:26;;;;;;;9.10;5.67;;;;;;;20.98;67.21;96738.91;4983756;28;20501;-92
2021/06/03 07:00:52;;;;;;;16.13;6.23;;;;;;;20.86;67.82;96740.97;4982437;28;20513;-93
2021/06/03 07:03:20;;;;;;;6.50;5.30;;;;;;;20.81;67.88;96734.53;4982550;28;20478;-92
2021/06/03 07:05:46;;;;;;;6.20;5.60;;;;;;;20.81;67.77;96742.75;4982234;28;20548;-92
2021/06/03 07:08:13;;;;;;;7.63;4.77;;;;;;;20.86;67.94;96738.94;4984066;28;20446;-92
2021/06/03 07:10:39;;;;;;;7.30;5.47;;;;;;;20.90;67.60;96741.16;4983780;28;20453;-91
2021/06/03 07:13:06;;;;;;;5.80;4.93;;;;;;;20.89;67.37;96740.47;4982319;28;20550;-92
2021/06/03 07:21:48;;;;;;;14.23;5.90;;;;;;;20.96;67.01;96747.72;4835314;29;20452;-92
2021/06/03 07:24:14;;;;;;;5.53;4.87;;;;;;;21.05;67.16;96738.63;4902525;29;20475;-93
2021/06/03 07:32:54;;;;;;;6.13;4.80;;;;;;;21.46;66.46;96754.59;4978664;28;20520;-93
2021/06/03 07:35:21;;;;;;;5.00;4.33;;;;;;;21.51;66.19;96748.72;4985963;28;20525;-94
2021/06/03 07:37:49;;;;;;;7.97;3.90;;;;;;;21.64;65.67;96748.06;4984760;28;20465;-93
2021/06/03 07:40:18;;;;;;;6.03;4.93;;;;;;;21.85;65.03;96749.84;4993323;28;20915;-91
2021/06/03 07:42:44;;;;;;;9.00;5.20;;;;;;;22.31;64.11;96748.78;4984864;28;20437;-92
2021/06/03 07:45:12;;;;;;;6.37;4.70;;;;;;;22.88;62.26;96757.84;5000278;28;20461;-93
2021/06/03 07:47:40;;;;;;;7.30;4.30;;;;;;;23.40;60.84;96751.41;5000038;28;20426;-90
2021/06/03 07:50:08;;;;;;;5.60;5.00;;;;;;;23.55;58.68;96758.28;5000111;28;20493;-91
2021/06/03 07:52:36;;;;;;;8.23;4.37;;;;;;;23.93;58.08;96752.47;4993804;28;20480;-92
2021/06/03 07:55:05;;;;;;;5.83;4.37;;;;;;;24.65;56.50;96750.75;4983796;28;20470;-93
2021/06/03 07:57:31;;;;;;;3.40;3.10;;;;;;;25.51;53.79;96759.09;4993871;28;20453;-93
2021/06/03 07:59:57;;;;;;;5.10;3.73;;;;;;;26.17;51.85;96762.94;4993334;28;20429;-92
2021/06/03 08:02:23;;;;;;;6.33;3.67;;;;;;;26.65;51.09;96752.84;5000010;28;20497;-93
2021/06/03 08:04:50;;;;;;;5.70;3.80;;;;;;;27.04;49.56;96756.28;5000011;28;20461;-91
2021/06/03 08:07:16;;;;;;;5.97;4.00;;;;;;;26.86;50.14;96754.97;5000057;28;20426;-92
2021/06/03 08:09:44;;;;;;;4.87;3.33;;;;;;;27.42;48.84;96764.38;5000293;28;20450;-91
2021/06/03 08:12:13;;;;;;;3.53;2.67;;;;;;;27.92;46.79;96760.38;4999706;28;20478;-91
2021/06/03 08:15:15;;;;;;;4.97;2.80;;;;;;;28.43;44.79;96770.88;4992969;28;20534;-89
2021/06/03 08:20:35;;;;;;;4.40;2.90;;;;;;;28.43;43.10;96770.16;4989893;28;20446;-90
2021/06/03 08:23:03;;;;;;;2.90;2.60;;;;;;;28.25;44.43;96770.38;4989540;28;20450;-92
2021/06/03 08:25:30;;;;;;;2.70;2.47;;;;;;;28.30;44.09;96771.88;4998223;28;20460;-92
2021/06/03 08:27:57;;;;;;;4.93;2.57;;;;;;;28.51;43.25;96771.06;4999426;28;20466;-91
2021/06/03 08:30:25;;;;;;;4.23;2.77;;;;;;;28.59;42.13;96762.97;4999494;28;20422;-92
2021/06/03 08:32:51;;;;;;;3.47;2.70;;;;;;;28.32;42.81;96757.38;4999151;28;20466;-92
2021/06/03 08:35:20;;;;;;;3.97;3.40;;;;;;;28.45;44.13;96757.03;4999004;28;20533;-91
2021/06/03 08:37:48;;;;;;;3.90;3.60;;;;;;;28.08;45.97;96765.72;4982898;28;21046;-92
2021/06/03 08:40:16;;;;;;;5.87;3.80;;;;;;;27.81;46.78;96767.00;4982478;28;20462;-91
2021/06/03 08:42:43;;;;;;;4.70;3.97;;;;;;;27.93;46.81;96763.88;4981610;28;20525;-92
2021/06/03 08:45:14;;;;;;;3.70;3.40;;;;;;;27.71;46.49;96763.22;4982674;28;20552;-91
2021/06/03 08:47:40;;;;;;;7.20;4.13;;;;;;;27.20;46.74;96758.84;4991707;28;20441;-93
2021/06/03 08:50:08;;;;;;;7.83;4.60;;;;;;;25.64;51.87;96757.50;4989314;28;20485;-93
2021/06/03 08:52:34;;;;;;;4.33;3.93;;;;;;;25.21;52.90;96741.31;4983597;28;20485;-93
2021/06/03 08:55:04;;;;;;;4.73;3.40;;;;;;;25.43;51.74;96756.72;4985580;28;20489;-92
2021/06/03 08:57:30;;;;;;;4.33;3.70;;;;;;;25.61;51.72;96747.69;4982696;28;20442;-92
2021/06/03 08:59:56;;;;;;;11.27;4.73;;;;;;;25.65;51.62;96751.34;4983986;28;20438;-92
2021/06/03 09:02:24;;;;;;;4.43;4.00;;;;;;;25.80;52.14;96755.34;4985353;28;20667;-92
2021/06/03 09:04:50;;;;;;;5.70;4.27;;;;;;;25.97;50.98;96752.53;4986734;28;20484;-92
2021/06/03 09:07:31;;;;;;;8.00;4.60;;;;;;;26.19;50.02;96751.97;4985195;28;20533;-92
2021/06/03 09:10:22;;;;;;;6.03;3.47;;;;;;;26.40;49.27;96759.63;4982769;28;20561;-91
2021/06/03 09:13:08;;;;;;;4.90;4.20;;;;;;;26.36;49.02;96753.94;4970641;28;20484;-90
2021/06/03 09:18:53;;;;;;;4.80;2.93;;;;;;;26.59;48.13;96765.13;4905855;29;20482;-90
2021/06/03 09:21:22;;;;;;;4.10;3.40;;;;;;;26.57;47.46;96750.50;4980139;28;20532;-91
2021/06/03 09:23:56;;;;;;;6.07;3.87;;;;;;;26.53;48.68;96748.31;4991084;28;20464;-93
2021/06/03 09:26:23;;;;;;;6.40;4.07;;;;;;;25.82;48.98;96741.56;4990395;28;20458;-91
2021/06/03 09:28:50;;;;;;;5.37;3.57;;;;;;;25.79;50.20;96748.38;4981734;28;20426;-90
2021/06/03 09:31:19;;;;;;;4.97;3.33;;;;;;;26.09;50.08;96743.97;4984669;28;20508;-92
2021/06/03 09:34:03;;;;;;;4.90;4.37;;;;;;;26.26;49.87;96754.28;4990620;28;20485;-93
2021/06/03 09:36:39;;;;;;;5.27;3.37;;;;;;;26.53;48.42;96748.31;4998028;28;20423;-90
2021/06/03 09:39:15;;;;;;;3.27;2.97;;;;;;;26.93;47.56;96751.06;4998055;28;20899;-92
2021/06/03 09:41:44;;;;;;;3.37;2.90;;;;;;;27.07;46.02;96752.22;4992408;28;20461;-93
2021/06/03 09:44:17;;;;;;;3.87;3.13;;;;;;;27.05;46.32;96752.16;4984575;28;20533;-92
2021/06/03 09:46:46;;;;;;;3.50;2.90;;;;;;;27.19;46.03;96745.66;4982468;28;20959;-92
2021/06/03 09:49:23;;;;;;;4.10;3.07;;;;;;;27.32;46.04;96762.00;4983228;28;20482;-92
2021/06/03 09:51:52;;;;;;;4.10;3.03;;;;;;;26.41;46.95;96747.19;4985258;28;20418;-94
2021/06/03 09:54:21;;;;;;;5.07;3.37;;;;;;;26.41;47.93;96747.88;4985465;28;20526;-93
2021/06/03 09:56:51;;;;;;;5.80;2.70;;;;;;;26.65;46.98;96739.00;4984616;28;20461;-93
2021/06/03 09:59:21;;;;;;;4.70;3.40;;;;;;;26.66;47.52;96734.91;4985156;28;20904;-92
2021/06/03 10:01:50;;;;;;;6.17;3.30;;;;;;;26.91;46.98;96737.16;4985233;28;20500;-92
2021/06/03 10:04:19;;;;;;;4.60;3.10;;;;;;;27.20;46.39;96735.97;4984709;28;20532;-92
2021/06/03 10:07:14;;;;;;;3.63;2.70;;;;;;;27.35;45.41;96738.53;4982510;28;20512;-92
2021/06/03 10:09:57;;;;;;;3.13;2.57;;;;;;;27.41;45.68;96738.03;4986335;28;20494;-93
2021/06/03 10:12:29;;;;;;;2.97;2.70;;;;;;;27.58;45.03;96742.72;4988840;28;20509;-93
2021/06/03 10:14:57;;;;;;;3.20;2.90;;;;;;;27.64;46.09;96738.06;4983850;28;20500;-92
2021/06/03 10:17:27;;;;;;;4.63;2.43;;;;;;;27.40;44.80;96737.31;4983311;28;20445;-93
2021/06/03 10:19:56;;;;;;;4.40;2.60;;;;;;;27.72;43.63;96742.44;4985567;28;20537;-93
2021/06/03 10:22:25;;;;;;;2.80;2.50;;;;;;;27.84;43.15;96745.56;4985024;28;20458;-92
2021/06/03 10:31:17;;;;;;;4.03;2.53;;;;;;;27.41;43.68;96738.03;4967250;28;20432;-92
2021/06/03 10:33:44;;;;;;;2.30;2.10;;;;;;;27.60;41.96;96742.78;4980908;28;20541;-91
2021/06/03 10:36:17;;;;;;;2.90;1.97;;;;;;;27.85;41.83;96735.91;4986007;28;20485;-91
2021/06/03 10:46:22;;;;;;;4.00;2.20;;;;;;;27.71;41.51;96730.63;5014389;28;20473;-93
2021/06/03 10:48:48;;;;;;;3.20;2.00;;;;;;;27.87;42.48;96735.94;5012559;28;20846;-92
2021/06/03 10:51:15;;;;;;;1.90;1.60;;;;;;;27.99;42.41;96727.97;5006049;28;20481;-92
2021/06/03 10:53:46;;;;;;;3.77;2.60;;;;;;;28.00;41.13;96723.84;5008305;28;20572;-92
2021/06/03 10:56:14;;;;;;;5.50;2.50;;;;;;;28.17;40.85;96720.16;5006831;28;20533;-92
2021/06/03 10:58:43;;;;;;;6.87;3.27;;;;;;;28.08;40.97;96730.34;5008956;28;20472;-92
2021/06/03 11:01:11;;;;;;;2.70;2.50;;;;;;;28.21;40.81;96719.56;5009422;28;20444;-92
2021/06/03 11:03:42;;;;;;;3.90;2.50;;;;;;;28.41;41.22;96723.59;5006960;28;20445;-92
2021/06/03 11:06:13;;;;;;;2.50;1.93;;;;;;;28.45;40.82;96718.16;5007761;28;20449;-91
2021/06/03 11:08:41;;;;;;;6.97;2.60;;;;;;;28.73;39.93;96726.53;5005635;28;20520;-90
2021/06/03 11:11:30;;;;;;;4.60;2.90;;;;;;;29.01;39.84;96723.72;5006783;28;20786;-92
2021/06/03 11:14:09;;;;;;;5.40;2.50;;;;;;;29.03;39.53;96718.22;5003751;28;20564;-91
2021/06/03 11:16:56;;;;;;;4.57;2.17;;;;;;;29.18;39.30;96717.91;5005273;28;20460;-92
2021/06/03 11:20:19;;;;;;;2.20;2.00;;;;;;;29.29;38.60;96709.84;5000943;28;20491;-91
2021/06/03 11:23:38;;;;;;;3.70;2.47;;;;;;;29.25;39.12;96709.72;4965150;29;20455;-91
2021/06/03 11:26:05;;;;;;;4.20;2.00;;;;;;;29.05;39.15;96718.97;4980042;28;20445;-93
2021/06/03 11:28:32;;;;;;;6.00;2.30;;;;;;;29.00;39.98;96706.38;5007873;28;20445;-94
2021/06/03 11:31:22;;;;;;;4.30;2.33;;;;;;;28.05;41.37;96706.66;5007677;28;20489;-93
2021/06/03 11:34:14;;;;;;;3.20;2.53;;;;;;;27.56;43.05;96704.56;5008462;28;20489;-93
2021/06/03 11:36:42;;;;;;;2.60;2.40;;;;;;;27.46;43.10;96701.47;4984996;28;20874;-91
2021/06/03 11:39:37;;;;;;;4.40;2.70;;;;;;;27.14;44.29;96698.41;5003610;28;20854;-91
2021/06/03 11:42:34;;;;;;;7.00;2.70;;;;;;;26.81;43.75;96695.25;5002904;28;20561;-92
2021/06/03 11:45:37;;;;;;;3.13;2.30;;;;;;;26.58;45.17;96696.56;4987371;28;20551;-92
2021/06/03 11:48:09;;;;;;;2.80;2.40;;;;;;;26.93;44.17;96692.88;5003488;28;20535;-92
2021/06/03 11:50:48;;;;;;;2.80;2.60;;;;;;;27.21;43.68;96707.63;5002523;28;20464;-91
2021/06/03 11:53:17;;;;;;;2.50;1.97;;;;;;;27.25;44.24;96710.53;5006720;28;20476;-93
2021/06/03 11:55:48;;;;;;;3.10;2.73;;;;;;;26.96;46.17;96703.38;5004008;28;20507;-91
2021/06/03 11:58:44;;;;;;;4.80;3.10;;;;;;;26.38;48.92;96693.81;5006666;28;20582;-91
2021/06/03 12:01:30;;;;;;;3.37;3.07;;;;;;;26.10;49.57;96695.56;5004644;28;20414;-92
2021/06/03 12:04:13;;;;;;;5.47;2.90;;;;;;;26.39;48.99;96700.06;5003129;28;20990;-93
2021/06/03 12:06:41;;;;;;;2.80;2.60;;;;;;;26.54;48.72;96699.19;5006007;28;20450;-93
2021/06/03 12:09:20;;;;;;;4.57;2.60;;;;;;;26.46;48.89;96704.47;5003691;28;20625;-93
2021/06/03 12:11:49;;;;;;;6.77;2.70;;;;;;;26.29;49.21;96683.09;5004034;28;20517;-93
2021/06/03 12:14:19;;;;;;;3.83;2.20;;;;;;;25.81;49.48;96702.16;5003422;28;20564;-92
2021/06/03 12:16:47;;;;;;;7.30;2.73;;;;;;;25.54;50.50;96697.72;5003495;28;20952;-92
2021/06/03 12:19:15;;;;;;;4.20;2.80;;;;;;;25.64;50.72;96707.72;5004439;28;20509;-92
2021/06/03 12:21:44;;;;;;;5.40;3.73;;;;;;;25.68;50.89;96711.38;5003205;28;20456;-93
2021/06/03 12:24:11;;;;;;;4.57;2.50;;;;;;;25.64;50.51;96711.22;5007470;28;20453;-93
2021/06/03 12:26:39;;;;;;;4.00;2.20;;;;;;;25.64;51.21;96713.25;5012053;28;20452;-93
2021/06/03 12:29:22;;;;;;;3.97;2.47;;;;;;;25.38;52.78;96719.19;5004966;28;20472;-92
2021/06/03 12:31:49;;;;;;;4.27;2.97;;;;;;;25.28;54.33;96724.31;5007090;28;20421;-94
2021/06/03 12:34:20;;;;;;;6.83;2.70;;;;;;;25.25;57.20;96722.13;5007289;28;20578;-92
2021/06/03 12:36:46;;;;;;;7.53;4.20;;;;;;;24.61;60.55;96722.97;5005221;28;20436;-92
2021/06/03 12:39:12;;;;;;;11.20;5.10;;;;;;;22.84;71.50;96725.34;5004322;28;20484;-92
2021/06/03 12:41:41;;;;;;;5.83;3.77;;;;;;;21.57;76.58;96705.09;5004243;28;20467;-90
2021/06/03 12:44:11;;;;;;;5.03;3.00;;;;;;;21.14;79.38;96715.84;5004138;28;20842;-91
2021/06/03 12:46:40;;;;;;;6.70;3.03;;;;;;;20.62;78.10;96696.41;5005915;28;20476;-91
2021/06/03 12:49:09;;;;;;;7.03;2.70;;;;;;;20.54;78.18;96690.47;5003470;28;20503;-90
2021/06/03 12:51:45;;;;;;;4.07;2.37;;;;;;;20.25;81.12;96694.31;5002337;28;20460;-92
2021/06/03 12:54:12;;;;;;;6.40;3.30;;;;;;;20.47;83.54;96699.66;5011394;28;20571;-90
2021/06/03 12:56:38;;;;;;;7.37;3.20;;;;;;;20.71;82.55;96693.53;5000967;28;20476;-90
2021/06/03 12:59:20;;;;;;;3.60;3.00;;;;;;;20.96;81.44;96698.31;4998905;28;20485;-91
2021/06/03 13:01:57;;;;;;;5.03;3.47;;;;;;;21.12;83.06;96704.00;5001107;28;20425;-94
2021/06/03 13:04:23;;;;;;;3.43;2.97;;;;;;;21.22;79.38;96710.06;5003688;28;20548;-91
2021/06/03 13:06:49;;;;;;;5.33;4.00;;;;;;;21.51;85.00;96710.28;5001489;28;20796;-91
2021/06/03 13:09:16;;;;;;;5.70;3.73;;;;;;;21.66;83.80;96706.22;5001838;28;20433;-91
2021/06/03 13:11:44;;;;;;;4.13;3.70;;;;;;;21.61;82.75;96713.56;5001826;28;21065;-90
2021/06/03 13:14:16;;;;;;;7.30;3.80;;;;;;;21.85;84.39;96714.09;5002483;28;20855;-93
2021/06/03 13:16:45;;;;;;;9.20;3.93;;;;;;;22.14;87.03;96717.03;5003939;28;20437;-95
2021/06/03 13:19:13;;;;;;;5.20;4.70;;;;;;;22.30;89.64;96712.31;5005723;28;20476;-93
2021/06/03 13:21:40;;;;;;;7.23;4.80;;;;;;;22.17;85.25;96715.81;5005103;28;20549;-91
2021/06/03 13:24:23;;;;;;;5.03;4.17;;;;;;;22.11;78.93;96721.00;5008695;28;20461;-91
2021/06/03 13:26:50;;;;;;;4.93;4.43;;;;;;;22.31;81.64;96715.78;5006369;28;20472;-91
2021/06/03 13:29:17;;;;;;;3.60;3.30;;;;;;;22.28;80.40;96720.47;5007305;28;20476;-92
2021/06/03 13:31:45;;;;;;;5.37;3.70;;;;;;;22.54;82.94;96720.38;5010508;28;20972;-91
2021/06/03 13:34:28;;;;;;;6.47;4.20;;;;;;;22.51;81.64;96716.09;5008121;28;20523;-91
2021/06/03 13:37:06;;;;;;;4.23;3.70;;;;;;;22.58;80.88;96709.56;5005766;28;20448;-91
2021/06/03 13:39:34;;;;;;;6.43;4.53;;;;;;;22.50;78.70;96709.16;5004854;28;20489;-94